• Join FlightAware (Why Join?)
  • Login
  • US Flag 
07:57AM EDT


 

Airport Tracker/Info


-or-


 

Live Flight TrackerFlight Track Log ✈ UAL258 ✈ 26-May-2013 ✈ KSFO - CYVR

Flight Track Log - Related Links

Times and Time Zones

All times are in EDT time to prevent confusion due to time zone crossing. See the UAL258 flight status page for this flight to view local times or setup timezone preferences in your user account.

Time Position Orientation Groundspeed Altitude Reporting Facility
EDT Latitude Longitude Course Direction KTS MPH feet Rate Location/Type
09:42PM 37.6281 -122.3917 North 144 166 1,300  Level Oakland Center
09:43PM 37.6500 -122.3667 42° Northeast 176 203 3,000 1,920 Climbing Northern Cal TRACON
09:44PM 37.8934 -122.2000 North  Level FlightAware Approximate
09:44PM 37.7000 -122.3333 28° Northeast 211 243 4,600  Level Northern Cal TRACON
09:45PM 38.0045 -122.1962 North  Level FlightAware Approximate
09:46PM 38.1154 -122.1851 North  Level FlightAware Approximate
09:46PM 37.8619 -122.3256 North 278 320 11,000  Level Oakland Center
09:47PM 38.2264 -122.1756 North  Level FlightAware Approximate
09:47PM 37.9544 -122.3206 North 337 388 12,300  Level Oakland Center
09:48PM 38.0572 -122.3186 North 373 429 14,800 2,520 Climbing Oakland Center
09:49PM 38.1847 -122.3136 North 385 443 17,500 2,400 Climbing Oakland Center
09:50PM 38.2947 -122.3100 North 395 455 19,800 2,040 Climbing Oakland Center
09:51PM 38.4056 -122.3044 North 399 459 21,700 1,740 Climbing Oakland Center
09:52PM 38.5186 -122.3003 North 406 467 23,400 1,620 Climbing Oakland Center
09:53PM 38.6339 -122.2964 North 413 475 25,000 1,440 Climbing Oakland Center
09:54PM 38.7542 -122.2919 North 420 483 26,400 1,320 Climbing Oakland Center
09:55PM 38.8725 -122.2939 359° North 423 487 27,700 1,320 Climbing Oakland Center
09:56PM 38.9922 -122.2933 360° North 428 493 29,200 1,500 Climbing Oakland Center
09:57PM 39.1081 -122.2931 360° North 417 480 30,800 1,440 Climbing Oakland Center
09:58PM 39.2228 -122.2919 360° North 412 474 32,200 1,200 Climbing Oakland Center
09:59PM 39.3378 -122.2925 360° North 413 475 33,300 1,020 Climbing Oakland Center
10:00PM 39.4519 -122.2931 360° North 410 472 34,300 900 Climbing Oakland Center
10:01PM 39.5669 -122.2928 360° North 410 472 35,200 720 Climbing Oakland Center
10:02PM 39.6836 -122.2922 360° North 417 480 35,800 780 Climbing Oakland Center
10:03PM 39.8014 -122.2917 360° North 423 487 36,800 720 Climbing Oakland Center
10:04PM 39.9172 -122.2917 360° North 419 482 37,300 420 Climbing Oakland Center
10:05PM 40.0350 -122.2922 360° North 421 484 37,700 300 Climbing Oakland Center
10:06PM 40.1578 -122.2906 North 431 496 38,000 120 Climbing Oakland Center
10:07PM 40.2903 -122.2908 360° North 438 504 38,000  Level Oakland Center
10:08PM 40.4094 -122.2908 360° North 433 498 38,000  Level Oakland Center
10:09PM 40.5294 -122.2906 360° North 432 497 38,000  Level Oakland Center
10:10PM 40.6478 -122.2894 360° North 429 494 38,000  Level Oakland Center
10:11PM 40.7664 -122.2883 360° North 426 490 38,000  Level Oakland Center
10:12PM 40.9072 -122.2881 360° North 424 488 38,000  Level Oakland Center
10:13PM 41.0258 -122.2883 360° North 425 489 38,000  Level Oakland Center
10:14PM 41.1450 -122.2908 359° North 428 493 38,000  Level Oakland Center
10:15PM 41.2650 -122.2900 360° North 431 496 38,000  Level Oakland Center
10:16PM 41.3747 -122.2881 North 427 491 38,000  Level Oakland Center
10:17PM 41.4475 -122.2889 360° North 428 493 38,000  Level Seattle Center
10:18PM 41.5678 -122.2881 360° North 430 495 38,000  Level Seattle Center
10:19PM 41.6875 -122.2889 360° North 429 494 38,000  Level Seattle Center
10:20PM 41.8081 -122.2883 360° North 430 495 38,000  Level Seattle Center
10:21PM 41.9281 -122.2883 360° North 428 493 38,000  Level Seattle Center
10:22PM 42.0478 -122.2889 360° North 426 490 38,000  Level Seattle Center
10:23PM 42.1683 -122.2864 North 426 490 38,000  Level Seattle Center
10:24PM 42.2869 -122.2853 360° North 422 486 38,000  Level Seattle Center
10:25PM 42.4067 -122.2869 359° North 426 490 38,000 -60 Level Seattle Center
10:26PM 42.5242 -122.2872 360° North 422 486 37,900  Descending Seattle Center
10:27PM 42.6431 -122.2861 360° North 425 489 38,000  Climbing Seattle Center
10:28PM 42.7808 -122.2847 360° North 427 491 38,000  Level Seattle Center
10:29PM 42.9000 -122.2839 360° North 430 495 38,000  Level Seattle Center
10:30PM 43.0189 -122.2839 360° North 429 494 38,000  Level Seattle Center
10:31PM 43.1392 -122.2836 360° North 432 497 38,000  Level Seattle Center
10:32PM 43.2586 -122.2836 360° North 430 495 38,000  Level Seattle Center
10:33PM 43.3775 -122.2833 360° North 429 494 38,000  Level Seattle Center
10:34PM 43.4972 -122.2839 360° North 431 496 38,000  Level Seattle Center
10:35PM 43.6164 -122.2833 360° North 430 495 38,000  Level Seattle Center
10:36PM 43.7356 -122.2842 360° North 429 494 38,000  Level Seattle Center
10:37PM 43.8544 -122.2833 360° North 428 493 38,000  Level Seattle Center
10:38PM 43.9739 -122.2842 360° North 430 495 38,000  Level Seattle Center
10:39PM 44.0931 -122.2839 360° North 430 495 38,000  Level Seattle Center
10:40PM 44.2350 -122.2833 360° North 427 491 38,000  Level Seattle Center
10:41PM 44.3544 -122.2828 360° North 430 495 38,000  Level Seattle Center
10:42PM 44.4750 -122.2822 360° North 432 497 38,000  Level Seattle Center
10:43PM 44.5956 -122.2842 359° North 436 502 38,000  Level Seattle Center
10:44PM 44.7164 -122.2833 360° North 435 501 38,000  Level Seattle Center
10:45PM 44.8356 -122.2836 360° North 432 497 38,000 -60 Level Seattle Center
10:46PM 44.9472 -122.2831 360° North 427 491 37,900 -60 Descending Seattle Center
10:47PM 45.0656 -122.2825 360° North 427 491 37,900  Level Seattle Center
10:48PM 45.1856 -122.2822 360° North 433 498 37,900  Level Seattle Center
10:49PM 45.3058 -122.2828 360° North 434 499 37,900  Level Seattle Center
10:51PM 45.4253 -122.2817 360° North 434 499 38,000  Climbing Seattle Center
10:52PM 45.5467 -122.2819 360° North 437 503 37,900 -60 Descending Seattle Center
10:53PM 45.6903 -122.2806 360° North 435 501 37,900  Level Seattle Center
10:54PM 45.8111 -122.2817 360° North 437 503 37,900  Level Seattle Center
10:55PM 45.9328 -122.2814 360° North 437 503 38,000  Climbing Seattle Center
10:56PM 46.0536 -122.2797 North 439 505 37,900 -60 Descending Seattle Center
10:57PM 46.1731 -122.2800 360° North 433 498 37,900  Level Seattle Center
10:58PM 46.2886 -122.2800 360° North 436 502 38,000  Climbing Seattle Center
10:59PM 46.4094 -122.2789 360° North 439 505 38,000  Level Seattle Center
11:00PM 46.5306 -122.2792 360° North 440 506 38,000  Level Seattle Center
11:01PM 46.6531 -122.2781 360° North 443 510 38,000  Level Seattle Center
11:02PM 46.7753 -122.2772 360° North 445 512 38,000  Level Seattle Center
11:03PM 46.9214 -122.2786 360° North 442 509 38,000  Level Seattle Center
11:04PM 47.0431 -122.2800 360° North 443 510 38,000  Level Seattle Center
11:05PM 47.1650 -122.2808 360° North 442 509 38,000  Level Seattle Center
11:06PM 47.2856 -122.2775 North 440 506 38,000 -180 Level Seattle Center
11:07PM 47.4056 -122.2786 360° North 437 503 37,700 -720 Descending Seattle Center
11:08PM 47.5256 -122.2783 360° North 440 506 36,600 -1,860 Descending Seattle Center
11:09PM 47.6439 -122.2781 360° North 440 506 34,000 -2,880 Descending Seattle Center
11:10PM 47.7867 -122.2775 360° North 445 512 30,800 -2,700 Descending Seattle Center
11:11PM 47.9047 -122.2786 360° North 437 503 28,600 -2,280 Descending Seattle Center
11:12PM 48.0175 -122.3053 351° North 420 483 26,300 -2,280 Descending Seattle Center
11:13PM 48.1267 -122.3378 349° North 409 471 24,000 -2,340 Descending Seattle Center
11:14PM 48.2364 -122.3689 349° North 407 468 21,700 -2,340 Descending Seattle Center
11:15PM 48.3428 -122.4008 349° North 400 460 19,400 -2,280 Descending Seattle Center
11:16PM 48.4469 -122.4308 349° North 388 447 17,200 -2,100 Descending Seattle Center
11:17PM 48.5500 -122.4617 349° North 385 443 15,200 -1,980 Descending Seattle Center
11:18PM 48.6483 -122.4903 349° North 370 426 13,200 -2,220 Descending Seattle Center
11:18PM 48.6833 -122.5167 334° Northwest 360 414 12,400 -960 Descending Vancouver Center
11:19PM 48.7500 -122.5833 327° Northwest 350 403 12,000 -420 Descending Vancouver Center
11:20PM 48.8000 -122.7167 300° West 350 403 11,600 -660 Descending Vancouver Center
11:21PM 48.8667 -122.8167 315° West 350 403 10,700 -780 Descending Vancouver Center
11:22PM 48.9333 -122.9167 315° West 340 391 10,100 -420 Descending Vancouver Center
11:23PM 49.0000 -123.0333 311° West 340 391 9,900 -420 Descending Vancouver Center
11:24PM 49.0500 -123.1167 312° West 310 357 9,300 -1,140 Descending Vancouver Center
11:25PM 49.0667 -123.2333 282° West 280 322 7,700 -1,560 Descending Vancouver Center
11:26PM 49.0833 -123.3333 284° West 270 311 6,200 -1,560 Descending Vancouver Center
11:27PM 49.1167 -123.4667 291° West 270 311 4,600 -1,380 Descending Vancouver Center
11:28PM 49.1667 -123.5167 327° Northwest 270 311 3,500 -840 Descending Vancouver Center
11:29PM 49.2000 -123.4667 44° Northeast 220 253 3,000 -540 Descending Vancouver Center